Terminal Aerodrome Forecast
Issued by NWS Grand Forks, ND

Home | Current Version | Previous Version | Text Only | Print | Product List | Glossary Off
Versions: 1 2 3 4 5 6 7 8 9 10 11 12

000
FTUS43 KFGF 192328
TAFFAR
TAF
KFAR 192328Z 2000/2024 34007KT P6SM SKC
     FM200300 18004KT P6SM FEW060
     FM200700 17005KT P6SM SCT110=

USA.gov is the U.S. government's official web portal to all federal, state and local government web resources and services.